createdAt,value
2022-07-28T00:00:44.673Z,54.20
2022-07-28T00:03:11.450Z,53.88
2022-07-28T00:05:38.620Z,54.38
2022-07-28T00:08:05.499Z,53.91
2022-07-28T00:10:32.514Z,54.94
2022-07-28T00:13:01.902Z,55.07
2022-07-28T00:15:30.800Z,54.45
2022-07-28T00:17:57.731Z,54.92
2022-07-28T00:20:24.488Z,55.14
2022-07-28T00:22:51.093Z,54.39
2022-07-28T00:25:17.734Z,55.10
2022-07-28T00:27:44.609Z,55.10
2022-07-28T00:30:11.856Z,54.73
2022-07-28T00:32:39.358Z,55.37
2022-07-28T00:35:08.324Z,54.42
2022-07-28T00:37:35.717Z,55.48
2022-07-28T00:40:08.135Z,55.60
2022-07-28T00:42:35.238Z,54.91
2022-07-28T00:45:02.115Z,55.53
2022-07-28T00:47:33.640Z,54.81
2022-07-28T00:50:02.341Z,55.14
2022-07-28T00:52:29.111Z,55.80
2022-07-28T00:54:57.979Z,56.02
2022-07-28T00:57:24.710Z,56.11
2022-07-28T00:59:51.733Z,55.45
2022-07-28T01:02:19.269Z,55.82
2022-07-28T01:04:46.661Z,55.18
2022-07-28T01:22:29.850Z,54.95
2022-07-28T01:25:12.463Z,55.79
2022-07-28T01:27:45.178Z,56.76
2022-07-28T01:30:27.820Z,55.91
2022-07-28T01:33:12.578Z,55.53
2022-07-28T01:35:46.513Z,56.48
2022-07-28T01:38:14.531Z,55.32
2022-07-28T01:40:45.582Z,55.72
2022-07-28T01:43:21.296Z,56.17
2022-07-28T01:45:47.915Z,55.37
2022-07-28T01:48:17.404Z,55.99
2022-07-28T01:50:48.274Z,56.11
2022-07-28T01:53:16.733Z,56.26
2022-07-28T01:55:45.085Z,54.62
2022-07-28T01:58:14.092Z,55.37
2022-07-28T02:00:42.975Z,55.66
2022-07-28T02:03:12.492Z,55.51
2022-07-28T02:05:43.280Z,55.80
2022-07-28T02:08:11.854Z,55.67
2022-07-28T02:10:42.822Z,56.10
2022-07-28T02:13:11.550Z,55.57
2022-07-28T02:15:40.928Z,56.19
2022-07-28T02:18:10.508Z,55.99
2022-07-28T02:20:38.119Z,56.28
2022-07-28T02:23:07.496Z,55.81
2022-07-28T02:25:38.660Z,56.51
2022-07-28T02:28:08.126Z,56.12
2022-07-28T02:30:41.918Z,56.26
2022-07-28T02:33:14.997Z,56.96
2022-07-28T02:36:00.494Z,57.04
2022-07-28T02:38:39.292Z,57.39
2022-07-28T02:41:15.559Z,57.11
2022-07-28T02:43:50.270Z,56.61
2022-07-28T02:46:22.415Z,56.36
2022-07-28T02:48:54.702Z,56.86
2022-07-28T02:51:25.038Z,57.20
2022-07-28T02:53:53.583Z,57.05
2022-07-28T02:56:20.977Z,56.89
2022-07-28T02:58:48.434Z,56.63
2022-07-28T03:01:19.268Z,56.63
2022-07-28T03:03:50.509Z,56.80
2022-07-28T03:06:28.390Z,57.21
2022-07-28T03:08:55.418Z,57.31
2022-07-28T03:11:22.045Z,57.16
2022-07-28T03:13:48.733Z,57.13
2022-07-28T03:16:15.607Z,57.28
2022-07-28T03:18:42.578Z,56.65
2022-07-28T03:21:11.403Z,56.89
2022-07-28T03:23:43.858Z,57.21
2022-07-28T03:26:21.273Z,57.21
2022-07-28T03:28:51.792Z,57.92
2022-07-28T03:31:20.423Z,58.12
2022-07-28T03:33:48.222Z,57.12
2022-07-28T03:36:19.837Z,57.47
2022-07-28T03:38:57.708Z,57.20
2022-07-28T03:41:26.634Z,57.34
2022-07-28T03:43:54.825Z,57.59
2022-07-28T03:46:21.841Z,57.61
2022-07-28T03:48:48.539Z,57.96
2022-07-28T03:51:15.267Z,57.48
2022-07-28T03:53:42.356Z,57.53
2022-07-28T03:56:09.134Z,57.84
2022-07-28T03:58:40.914Z,58.25
2022-07-28T04:01:07.610Z,57.38
2022-07-28T04:03:42.658Z,57.90
2022-07-28T04:06:15.529Z,57.05
2022-07-28T04:08:44.200Z,56.88
2022-07-28T04:11:11.200Z,57.98
2022-07-28T04:13:38.131Z,57.75
2022-07-28T04:16:07.099Z,57.55
2022-07-28T04:18:34.578Z,57.29
2022-07-28T04:21:01.209Z,57.36
2022-07-28T04:23:29.117Z,56.92
2022-07-28T04:25:55.803Z,57.34
2022-07-28T04:28:22.620Z,57.28
2022-07-28T04:30:49.384Z,57.17
2022-07-28T04:33:18.175Z,57.97
2022-07-28T04:35:46.155Z,56.74
2022-07-28T04:38:15.146Z,57.59
2022-07-28T04:40:43.560Z,57.65
2022-07-28T04:43:13.166Z,57.16
2022-07-28T04:45:45.897Z,57.67
2022-07-28T04:48:20.300Z,56.29
2022-07-28T04:50:47.098Z,57.46
2022-07-28T04:53:14.121Z,56.48
2022-07-28T04:55:41.203Z,57.26
2022-07-28T04:58:08.717Z,56.55
2022-07-28T05:00:36.246Z,55.48
2022-07-28T05:03:04.444Z,55.96
2022-07-28T05:05:31.657Z,55.56
2022-07-28T05:07:58.298Z,55.56
2022-07-28T05:10:25.185Z,55.71
2022-07-28T05:12:53.338Z,55.97
2022-07-28T05:15:20.086Z,56.21
2022-07-28T05:17:46.836Z,56.11
2022-07-28T05:20:13.863Z,57.35
2022-07-28T05:22:48.079Z,56.92
2022-07-28T05:25:16.433Z,56.42
2022-07-28T05:27:43.548Z,56.32
2022-07-28T05:30:11.570Z,56.25
2022-07-28T05:32:38.399Z,55.65
2022-07-28T05:35:08.407Z,55.15
2022-07-28T05:37:36.167Z,55.32
2022-07-28T05:40:10.075Z,55.55
2022-07-28T05:42:37.193Z,54.44
2022-07-28T05:45:15.799Z,53.98
2022-07-28T05:47:48.765Z,53.49
2022-07-28T05:50:17.209Z,52.96
2022-07-28T05:52:44.201Z,51.68
2022-07-28T05:55:11.086Z,51.24
2022-07-28T05:57:38.858Z,50.92
2022-07-28T06:00:14.246Z,49.72
2022-07-28T06:02:42.298Z,48.79
2022-07-28T06:05:09.459Z,48.03
2022-07-28T06:07:42.855Z,46.78
2022-07-28T06:10:16.364Z,47.63
2022-07-28T06:12:45.137Z,46.69
2022-07-28T06:15:26.035Z,46.46
2022-07-28T06:17:55.678Z,46.21
2022-07-28T06:20:25.122Z,45.21
2022-07-28T06:22:55.177Z,46.72
2022-07-28T06:25:24.662Z,44.84
2022-07-28T06:27:53.318Z,46.95
2022-07-28T06:30:21.006Z,47.51
2022-07-28T06:32:48.622Z,45.99
2022-07-28T06:35:16.933Z,46.27
2022-07-28T06:37:46.694Z,45.73
2022-07-28T06:40:14.850Z,46.53
2022-07-28T06:42:43.229Z,45.97
2022-07-28T06:45:20.752Z,45.53
2022-07-28T06:47:49.517Z,44.04
2022-07-28T06:50:25.687Z,44.69
2022-07-28T06:52:55.359Z,44.15
2022-07-28T06:55:22.209Z,43.83
2022-07-28T06:57:49.413Z,43.53
2022-07-28T07:00:16.412Z,42.54
2022-07-28T07:02:43.775Z,42.43
2022-07-28T07:05:14.651Z,43.84
2022-07-28T07:07:43.542Z,45.25
2022-07-28T07:10:11.790Z,45.58
2022-07-28T07:12:38.952Z,45.61
2022-07-28T07:15:07.932Z,44.63
2022-07-28T07:17:37.341Z,45.49
2022-07-28T07:20:08.782Z,45.33
2022-07-28T07:22:41.423Z,46.29
2022-07-28T07:25:16.646Z,44.73
2022-07-28T07:27:44.474Z,43.45
2022-07-28T07:30:17.944Z,43.88
2022-07-28T07:32:45.012Z,44.08
2022-07-28T07:35:12.431Z,43.32
2022-07-28T07:37:39.954Z,43.04
2022-07-28T07:40:07.595Z,44.16
2022-07-28T07:42:34.357Z,44.26
2022-07-28T07:45:01.638Z,45.42
2022-07-28T07:47:29.054Z,44.27
2022-07-28T07:49:55.686Z,44.11
2022-07-28T07:52:22.745Z,44.22
2022-07-28T07:54:49.424Z,44.17
2022-07-28T07:57:17.160Z,43.84
2022-07-28T07:59:43.877Z,44.63
2022-07-28T08:02:10.569Z,44.23
2022-07-28T08:04:38.638Z,44.29
2022-07-28T08:07:07.301Z,44.27
2022-07-28T08:09:34.825Z,44.31
2022-07-28T08:12:01.727Z,43.17
2022-07-28T08:14:28.384Z,43.05
2022-07-28T08:16:56.962Z,42.10
2022-07-28T08:19:23.730Z,41.95
2022-07-28T08:21:51.175Z,40.53
2022-07-28T08:24:32.780Z,41.33
2022-07-28T08:27:04.799Z,42.09
2022-07-28T08:29:31.857Z,42.07
2022-07-28T08:31:59.981Z,42.61
2022-07-28T08:34:33.384Z,42.00
2022-07-28T08:37:03.207Z,43.19
2022-07-28T08:39:32.638Z,42.20
2022-07-28T08:42:22.469Z,42.83
2022-07-28T08:45:05.043Z,42.11
2022-07-28T08:47:58.676Z,43.29
2022-07-28T08:50:25.618Z,43.05
2022-07-28T08:52:54.064Z,43.40
2022-07-28T08:55:31.498Z,42.33
2022-07-28T08:58:01.829Z,42.48
2022-07-28T09:00:29.822Z,42.70
2022-07-28T09:02:56.744Z,42.34
2022-07-28T09:05:24.413Z,42.52
2022-07-28T09:07:55.410Z,42.31
2022-07-28T09:10:24.768Z,42.87
2022-07-28T09:12:53.490Z,42.68
2022-07-28T09:15:20.113Z,42.21
2022-07-28T09:17:48.361Z,43.02
2022-07-28T09:20:16.366Z,43.58
2022-07-28T09:23:04.576Z,43.04
2022-07-28T09:25:31.517Z,42.65
2022-07-28T09:28:20.179Z,41.89
2022-07-28T09:30:53.999Z,43.11
2022-07-28T09:33:41.828Z,42.02
2022-07-28T09:36:15.592Z,42.21
2022-07-28T09:38:42.438Z,42.75
2022-07-28T09:41:10.487Z,41.98
2022-07-28T09:43:44.888Z,41.92
2022-07-28T09:46:20.206Z,41.78
2022-07-28T09:48:52.777Z,41.50
2022-07-28T09:51:24.746Z,41.10
2022-07-28T09:53:53.620Z,40.66
2022-07-28T09:56:23.339Z,41.33
2022-07-28T09:58:55.864Z,40.24
2022-07-28T10:01:31.173Z,39.70
2022-07-28T10:04:05.071Z,39.80
2022-07-28T10:06:37.879Z,39.71
2022-07-28T10:09:08.308Z,40.44
2022-07-28T10:11:41.606Z,40.44
2022-07-28T10:14:10.934Z,40.26
2022-07-28T10:16:52.530Z,41.32
2022-07-28T10:19:19.332Z,41.48
2022-07-28T10:21:50.282Z,40.36
2022-07-28T10:24:25.191Z,40.73
2022-07-28T10:26:54.006Z,40.93
2022-07-28T10:29:22.520Z,40.51
2022-07-28T10:31:55.033Z,39.69
2022-07-28T10:34:28.237Z,38.85
2022-07-28T10:36:56.012Z,37.85
2022-07-28T10:39:32.202Z,38.29
2022-07-28T10:42:00.848Z,38.99
2022-07-28T10:44:29.370Z,38.36
2022-07-28T10:46:57.207Z,37.51
2022-07-28T10:49:27.602Z,38.10
2022-07-28T10:52:02.350Z,36.93
2022-07-28T10:54:47.506Z,36.89
2022-07-28T10:57:16.211Z,37.41
2022-07-28T11:00:12.826Z,36.72
2022-07-28T11:03:00.753Z,36.75
2022-07-28T11:05:40.246Z,35.76
2022-07-28T11:08:27.972Z,35.98
2022-07-28T11:11:08.802Z,36.08
2022-07-28T11:13:41.241Z,36.58
2022-07-28T11:16:15.340Z,36.41
2022-07-28T11:19:08.177Z,36.12
2022-07-28T11:22:15.808Z,36.84
2022-07-28T11:25:19.819Z,35.94
2022-07-28T11:27:51.293Z,35.66
2022-07-28T11:30:36.219Z,35.69
2022-07-28T11:33:04.920Z,35.31
2022-07-28T11:35:57.438Z,33.96
2022-07-28T11:38:26.759Z,35.47
2022-07-28T11:40:56.048Z,36.48
2022-07-28T11:43:28.587Z,35.72
2022-07-28T11:46:10.090Z,35.29
2022-07-28T11:51:25.139Z,36.47
2022-07-28T11:53:55.083Z,36.04
2022-07-28T11:56:31.712Z,35.49
2022-07-28T11:59:03.533Z,36.76
2022-07-28T12:01:31.717Z,35.91
2022-07-28T12:04:00.610Z,35.65
2022-07-28T12:06:42.671Z,38.54
2022-07-28T12:09:11.403Z,37.82
2022-07-28T12:11:43.354Z,37.83
2022-07-28T12:14:16.350Z,38.42
2022-07-28T12:16:46.011Z,36.64
2022-07-28T12:19:16.007Z,36.67
2022-07-28T12:21:52.703Z,36.44
2022-07-28T12:24:44.673Z,37.71
2022-07-28T12:27:14.817Z,38.27
2022-07-28T12:29:42.660Z,37.13
2022-07-28T12:32:10.193Z,36.66
2022-07-28T12:34:39.978Z,37.38
2022-07-28T12:37:12.689Z,38.09
2022-07-28T12:39:42.447Z,37.88
2022-07-28T12:42:14.114Z,37.97
2022-07-28T12:44:46.277Z,37.74
2022-07-28T12:47:15.401Z,36.81
2022-07-28T12:49:45.390Z,37.16
2022-07-28T12:52:24.983Z,37.03
2022-07-28T12:54:56.128Z,37.75
2022-07-28T12:57:49.358Z,36.19
2022-07-28T13:00:23.402Z,38.05
2022-07-28T13:02:52.271Z,38.06
2022-07-28T13:05:28.086Z,37.05
2022-07-28T13:08:04.870Z,37.05
2022-07-28T13:10:31.904Z,37.79
2022-07-28T13:13:04.763Z,37.95
2022-07-28T13:15:32.121Z,36.84
2022-07-28T13:17:59.951Z,36.58
2022-07-28T13:20:27.299Z,37.67
2022-07-28T13:22:57.423Z,38.12
2022-07-28T13:25:25.698Z,38.86
2022-07-28T13:27:55.312Z,38.54
2022-07-28T13:30:24.168Z,38.05
2022-07-28T13:32:51.827Z,38.41
2022-07-28T13:35:20.901Z,38.53
2022-07-28T13:37:50.410Z,38.76
2022-07-28T13:40:17.130Z,38.59
2022-07-28T13:42:53.115Z,38.61
2022-07-28T13:45:30.343Z,37.18
2022-07-28T13:47:57.118Z,38.31
2022-07-28T13:50:24.237Z,38.78
2022-07-28T13:52:51.215Z,38.80
2022-07-28T13:55:19.763Z,37.90
2022-07-28T13:57:49.039Z,38.25
2022-07-28T14:00:18.690Z,37.94
2022-07-28T14:02:49.452Z,38.04
2022-07-28T14:05:16.484Z,38.52
2022-07-28T14:07:48.305Z,38.64
2022-07-28T14:10:17.822Z,36.96
2022-07-28T14:12:46.262Z,37.15
2022-07-28T14:15:13.723Z,36.97
2022-07-28T14:17:42.797Z,36.99
2022-07-28T14:20:13.412Z,36.56
2022-07-28T14:22:40.930Z,36.13
2022-07-28T14:25:09.272Z,36.48
2022-07-28T14:27:36.380Z,37.57
2022-07-28T14:30:04.386Z,38.12
2022-07-28T14:32:31.830Z,36.19
2022-07-28T14:35:02.342Z,36.22
2022-07-28T14:37:36.205Z,36.49
2022-07-28T14:40:09.320Z,36.93
2022-07-28T14:42:36.326Z,35.33
2022-07-28T14:45:05.548Z,36.96
2022-07-28T14:47:45.004Z,36.89
2022-07-28T14:50:13.469Z,36.65
2022-07-28T14:52:40.571Z,36.96
2022-07-28T14:55:14.985Z,37.59
2022-07-28T14:57:48.303Z,37.93
2022-07-28T15:00:23.842Z,37.58
2022-07-28T15:02:54.338Z,37.73
2022-07-28T15:05:23.944Z,37.44
2022-07-28T15:07:52.252Z,38.89
2022-07-28T15:10:20.102Z,38.69
2022-07-28T15:12:46.882Z,38.73
2022-07-28T15:15:13.635Z,38.26
2022-07-28T15:17:40.373Z,38.49
2022-07-28T15:20:09.042Z,38.59
2022-07-28T15:22:35.796Z,38.87
2022-07-28T15:25:02.505Z,38.40
2022-07-28T15:27:33.285Z,38.74
2022-07-28T15:30:02.506Z,39.40
2022-07-28T15:32:29.893Z,38.65
2022-07-28T15:34:56.674Z,38.23
2022-07-28T15:37:23.336Z,38.83
2022-07-28T15:39:50.273Z,38.90
2022-07-28T15:42:16.962Z,39.30
2022-07-28T15:44:43.637Z,39.64
2022-07-28T15:47:10.226Z,39.18
2022-07-28T15:49:36.795Z,39.51
2022-07-28T15:52:05.212Z,39.61
2022-07-28T15:54:31.906Z,39.62
2022-07-28T15:56:59.065Z,38.86
2022-07-28T15:59:48.871Z,39.48
2022-07-28T16:02:18.653Z,38.81
2022-07-28T16:04:53.208Z,38.97
2022-07-28T16:07:24.858Z,38.63
2022-07-28T16:09:56.511Z,38.69
2022-07-28T16:12:25.457Z,38.86
2022-07-28T16:14:55.864Z,38.93
2022-07-28T16:17:23.538Z,39.24
2022-07-28T16:19:51.263Z,39.44
2022-07-28T16:22:22.710Z,38.81
2022-07-28T16:24:50.732Z,38.58
2022-07-28T16:27:17.741Z,38.56
2022-07-28T16:29:45.961Z,38.75
2022-07-28T16:32:13.006Z,38.57
2022-07-28T16:34:39.667Z,38.57
2022-07-28T16:37:06.503Z,38.68
2022-07-28T16:39:34.327Z,39.04
2022-07-28T16:42:01.590Z,38.51
2022-07-28T16:44:28.626Z,38.37
2022-07-28T16:46:55.559Z,39.26
2022-07-28T16:49:22.477Z,38.94
2022-07-28T16:51:49.156Z,38.87
2022-07-28T16:54:16.239Z,38.84
2022-07-28T16:56:43.358Z,38.58
2022-07-28T16:59:10.321Z,38.89
2022-07-28T17:01:38.906Z,39.19
2022-07-28T17:04:09.111Z,39.33
2022-07-28T17:06:38.721Z,39.74
2022-07-28T17:09:05.602Z,39.18
2022-07-28T17:11:32.292Z,39.50
2022-07-28T17:13:58.963Z,39.79
2022-07-28T17:16:28.134Z,39.69
2022-07-28T17:18:54.887Z,39.30
2022-07-28T17:21:21.503Z,38.71
2022-07-28T17:23:48.659Z,39.65
2022-07-28T17:27:30.693Z,39.48
2022-07-28T17:29:02.293Z,40.16
2022-07-28T17:31:29.104Z,39.42
2022-07-28T17:34:00.304Z,39.80
2022-07-28T17:36:29.319Z,39.78
2022-07-28T17:38:55.861Z,39.90
2022-07-28T17:41:22.869Z,40.13
2022-07-28T17:43:49.539Z,39.92
2022-07-28T17:46:21.515Z,40.31
2022-07-28T17:48:48.708Z,40.19
2022-07-28T17:51:15.629Z,40.54
2022-07-28T17:53:42.954Z,40.34
2022-07-28T17:56:12.368Z,40.98
2022-07-28T17:58:39.540Z,41.17
2022-07-28T18:01:13.744Z,40.67
2022-07-28T18:03:57.649Z,40.85
2022-07-28T18:06:32.950Z,41.21
2022-07-28T18:09:05.553Z,41.79
2022-07-28T18:11:55.805Z,41.17
2022-07-28T18:14:26.891Z,41.40
2022-07-28T18:16:53.655Z,41.53
2022-07-28T18:19:20.261Z,41.55
2022-07-28T18:21:46.828Z,41.98
2022-07-28T18:24:13.809Z,41.62
2022-07-28T18:26:40.656Z,41.86
2022-07-28T18:29:07.387Z,42.01
2022-07-28T18:31:33.988Z,42.09
2022-07-28T18:34:00.644Z,42.31
2022-07-28T18:36:28.325Z,41.97
2022-07-28T18:38:54.882Z,42.43
2022-07-28T18:41:21.763Z,42.57
2022-07-28T18:43:48.410Z,42.57
2022-07-28T18:46:15.057Z,42.56
2022-07-28T18:48:42.811Z,42.82
2022-07-28T18:51:09.763Z,43.14
2022-07-28T18:53:37.474Z,42.99
2022-07-28T18:56:04.327Z,43.22
2022-07-28T18:58:31.116Z,43.34
2022-07-28T19:00:57.754Z,43.51
2022-07-28T19:03:26.685Z,43.58
2022-07-28T19:05:54.382Z,43.85
2022-07-28T19:08:21.339Z,43.72
2022-07-28T19:10:49.685Z,43.60
2022-07-28T19:13:16.445Z,43.98
2022-07-28T19:15:43.369Z,43.90
2022-07-28T19:18:12.093Z,43.87
2022-07-28T19:20:44.814Z,43.98
2022-07-28T19:23:11.996Z,44.43
2022-07-28T19:25:40.050Z,44.23
2022-07-28T19:28:06.985Z,44.24
2022-07-28T19:30:34.113Z,44.02
2022-07-28T19:33:00.943Z,44.03
2022-07-28T19:35:27.997Z,44.45
2022-07-28T19:37:56.760Z,44.50
2022-07-28T19:40:25.594Z,44.67
2022-07-28T19:42:53.666Z,44.85
2022-07-28T19:45:20.570Z,44.77
2022-07-28T19:47:49.760Z,45.01
2022-07-28T19:50:16.895Z,45.38
2022-07-28T19:52:43.696Z,45.17
2022-07-28T19:55:10.366Z,45.55
2022-07-28T19:57:37.015Z,45.74
2022-07-28T20:00:04.961Z,45.60
2022-07-28T20:02:31.657Z,45.75
2022-07-28T20:04:58.382Z,46.05
2022-07-28T20:07:25.273Z,45.86
2022-07-28T20:09:51.904Z,46.30
2022-07-28T20:12:18.875Z,46.59
2022-07-28T20:14:45.523Z,46.55
2022-07-28T20:17:29.531Z,46.30
2022-07-28T20:19:58.760Z,46.62
2022-07-28T20:22:25.530Z,46.49
2022-07-28T20:24:52.217Z,46.14
2022-07-28T20:27:19.715Z,46.38
2022-07-28T20:29:46.381Z,46.53
2022-07-28T20:32:12.973Z,46.71
2022-07-28T20:34:39.888Z,46.57
2022-07-28T20:37:06.702Z,47.04
2022-07-28T20:39:53.430Z,47.33
2022-07-28T20:42:20.238Z,47.32
2022-07-28T20:44:46.892Z,47.51
2022-07-28T20:47:13.611Z,47.27
2022-07-28T20:49:40.567Z,47.36
2022-07-28T20:52:07.248Z,47.87
2022-07-28T20:54:33.898Z,47.97
2022-07-28T20:57:01.787Z,47.88
2022-07-28T20:59:28.396Z,47.76
2022-07-28T21:01:56.056Z,48.31
2022-07-28T21:04:24.574Z,48.12
2022-07-28T21:06:52.764Z,48.38
2022-07-28T21:09:22.719Z,48.16
2022-07-28T21:11:49.571Z,48.64
2022-07-28T21:14:16.739Z,48.55
2022-07-28T21:16:43.634Z,48.82
2022-07-28T21:19:10.296Z,49.00
2022-07-28T21:21:36.921Z,48.53
2022-07-28T21:24:05.176Z,48.84
2022-07-28T21:26:31.950Z,48.33
2022-07-28T21:32:04.856Z,49.48
2022-07-28T21:34:32.331Z,49.56
2022-07-28T21:37:04.098Z,49.49
2022-07-28T21:39:31.592Z,49.57
2022-07-28T21:41:58.398Z,49.60
2022-07-28T21:44:25.245Z,49.81
2022-07-28T21:46:52.720Z,49.23
2022-07-28T21:49:19.296Z,49.90
2022-07-28T21:51:46.568Z,50.10
2022-07-28T21:54:13.828Z,50.17
2022-07-28T21:56:40.930Z,50.21
2022-07-28T21:59:07.794Z,50.25
2022-07-28T22:01:36.485Z,50.40
2022-07-28T22:04:03.648Z,50.51
2022-07-28T22:06:30.455Z,50.72
2022-07-28T22:08:57.079Z,50.67
2022-07-28T22:11:26.481Z,50.66
2022-07-28T22:13:53.959Z,50.71
2022-07-28T22:16:20.653Z,50.68
2022-07-28T22:18:47.393Z,50.51
2022-07-28T22:21:14.172Z,50.14
2022-07-28T22:23:41.917Z,50.37
2022-07-28T22:26:08.748Z,50.18
2022-07-28T22:28:36.053Z,49.77
2022-07-28T22:31:08.799Z,49.75
2022-07-28T22:33:40.038Z,49.82
2022-07-28T22:36:09.253Z,50.20
2022-07-28T22:38:36.706Z,50.63
2022-07-28T22:41:03.582Z,50.45
2022-07-28T22:43:34.661Z,50.18
2022-07-28T22:46:01.694Z,50.37
2022-07-28T22:48:28.926Z,49.88
2022-07-28T22:50:55.976Z,50.01
2022-07-28T22:53:27.724Z,50.13
2022-07-28T22:55:54.668Z,50.01
2022-07-28T22:58:21.305Z,50.30
2022-07-28T23:00:49.254Z,50.30
2022-07-28T23:03:18.399Z,50.32
2022-07-28T23:05:45.685Z,50.22
2022-07-28T23:08:13.035Z,50.02
2022-07-28T23:10:40.560Z,49.99
2022-07-28T23:13:07.463Z,50.17
2022-07-28T23:15:39.371Z,49.93
2022-07-28T23:18:11.616Z,50.34
2022-07-28T23:20:39.177Z,50.47
2022-07-28T23:23:07.836Z,50.31
2022-07-28T23:25:40.764Z,50.62
2022-07-28T23:28:09.010Z,50.32
2022-07-28T23:30:35.887Z,49.84
2022-07-28T23:33:02.773Z,50.66
2022-07-28T23:35:29.613Z,50.35
2022-07-28T23:37:56.456Z,50.52
2022-07-28T23:40:23.379Z,50.01
2022-07-28T23:42:50.172Z,49.83
2022-07-28T23:45:16.873Z,50.08
2022-07-28T23:47:44.570Z,49.60
2022-07-28T23:50:11.396Z,49.53
2022-07-28T23:52:38.160Z,49.41
2022-07-28T23:55:05.681Z,49.56
2022-07-28T23:57:32.437Z,49.97
